| time (UTC) | temp F | wind direction | speed MPH | gust MPH | rain 1hr in | rain 24hr in | rain mn in | humidity % | barometer mb |
| 20260507214845 | 71 | 254 | 18.0 | 21.0 | 0.00 | 0.00 | 0.00 | 29 | 1011.3 |
| 20260507214343 | 70 | 228 | 19.0 | 23.0 | 0.00 | 0.00 | 0.00 | 29 | 1011.4 |
| 20260507213838 | 71 | 238 | 13.0 | 18.0 | 0.00 | 0.00 | 0.00 | 29 | 1011.7 |
| 20260507213335 | 71 | 211 | 20.0 | 23.0 | 0.00 | 0.00 | 0.00 | 29 | 1011.7 |
| 20260507212832 | 71 | 233 | 15.0 | 18.0 | 0.00 | 0.00 | 0.00 | 28 | 1011.8 |
| 20260507212327 | 71 | 180 | 11.0 | 17.0 | 0.00 | 0.00 | 0.00 | 29 | 1011.8 |
| 20260507211824 | 71 | 204 | 12.0 | 21.0 | 0.00 | 0.00 | 0.00 | 30 | 1012.1 |
| 20260507211321 | 71 | 208 | 17.0 | 20.0 | 0.00 | 0.00 | 0.00 | 30 | 1012.3 |
| 20260507210818 | 70 | 203 | 16.0 | 24.0 | 0.00 | 0.00 | 0.00 | 30 | 1012.1 |
| 20260507210315 | 69 | 199 | 15.0 | 16.0 | 0.00 | 0.00 | 0.00 | 31 | 1012.4 |
| 20260507205811 | 70 | 215 | 14.0 | 18.0 | 0.00 | 0.00 | 0.00 | 30 | 1012.4 |
| 20260507205309 | 70 | 204 | 15.0 | 22.0 | 0.00 | 0.00 | 0.00 | 30 | 1012.8 |
| 20260507204804 | 69 | 222 | 12.0 | 22.0 | 0.00 | 0.00 | 0.00 | 32 | 1012.6 |
| 20260507204302 | 69 | 221 | 10.0 | 18.0 | 0.00 | 0.00 | 0.00 | 32 | 1012.9 |
| 20260507203800 | 68 | 216 | 11.0 | 24.0 | 0.00 | 0.00 | 0.00 | 32 | 1013.1 |
| 20260507203258 | 68 | 245 | 9.0 | 16.0 | 0.00 | 0.00 | 0.00 | 32 | 1013.2 |
| 20260507202753 | 68 | 211 | 8.0 | 12.0 | 0.00 | 0.00 | 0.00 | 32 | 1013.1 |
| 20260507202249 | 69 | 200 | 15.0 | 17.0 | 0.00 | 0.00 | 0.00 | 32 | 1013.1 |
| 20260507201744 | 68 | 265 | 8.0 | 17.0 | 0.00 | 0.00 | 0.00 | 32 | 1013.4 |
| 20260507201241 | 68 | 191 | 11.0 | 12.0 | 0.00 | 0.00 | 0.00 | 33 | 1013.6 |
| 20260507200738 | 67 | 224 | 9.0 | 20.0 | 0.00 | 0.00 | 0.00 | 33 | 1013.6 |
| 20260507200234 | 67 | 226 | 14.0 | 22.0 | 0.00 | 0.00 | 0.00 | 33 | 1013.7 |
| 20260507195730 | 67 | 173 | 9.0 | 13.0 | 0.00 | 0.00 | 0.00 | 35 | 1014.0 |
| 20260507195228 | 68 | 244 | 11.0 | 17.0 | 0.00 | 0.00 | 0.00 | 33 | 1014.1 |
| 20260507194724 | 67 | 203 | 12.0 | 22.0 | 0.00 | 0.00 | 0.00 | 33 | 1014.2 |
| 20260507194220 | 66 | 190 | 4.0 | 15.0 | 0.00 | 0.00 | 0.00 | 38 | 1014.1 |
| 20260507193717 | 66 | 205 | 14.0 | 17.0 | 0.00 | 0.00 | 0.00 | 37 | 1014.3 |
| 20260507193214 | 67 | 221 | 19.0 | 22.0 | 0.00 | 0.00 | 0.00 | 36 | 1014.5 |
| 20260507192710 | 65 | 271 | 4.0 | 16.0 | 0.00 | 0.00 | 0.00 | 39 | 1014.8 |
| 20260507192207 | 65 | 222 | 13.0 | 17.0 | 0.00 | 0.00 | 0.00 | 39 | 1014.7 |
| 20260507191703 | 66 | 208 | 12.0 | 18.0 | 0.00 | 0.00 | 0.00 | 39 | 1014.7 |
| 20260507191201 | 64 | 264 | 6.0 | 12.0 | 0.00 | 0.00 | 0.00 | 41 | 1014.8 |
| 20260507190657 | 63 | 219 | 11.0 | 20.0 | 0.00 | 0.00 | 0.00 | 43 | 1014.9 |
| 20260507190156 | 64 | 201 | 11.0 | 18.0 | 0.00 | 0.00 | 0.00 | 42 | 1014.9 |
| 20260507185654 | 63 | 247 | 10.0 | 20.0 | 0.00 | 0.00 | 0.00 | 43 | 1015.1 |
| 20260507185150 | 62 | 287 | 7.0 | 16.0 | 0.00 | 0.00 | 0.00 | 44 | 1015.3 |
| 20260507184648 | 61 | 261 | 17.0 | 19.0 | 0.00 | 0.00 | 0.00 | 46 | 1015.1 |
| 20260507184146 | 61 | 225 | 5.0 | 9.0 | 0.00 | 0.00 | 0.00 | 44 | 1015.4 |
| 20260507183642 | 62 | 248 | 17.0 | 22.0 | 0.00 | 0.00 | 0.00 | 44 | 1015.7 |
| 20260507183139 | 61 | 248 | 14.0 | 17.0 | 0.00 | 0.00 | 0.00 | 47 | 1015.7 |
| 20260507182636 | 61 | 300 | 13.0 | 17.0 | 0.00 | 0.00 | 0.00 | 46 | 1015.7 |
| 20260507182132 | 60 | 249 | 15.0 | 24.0 | 0.00 | 0.00 | 0.00 | 48 | 1015.8 |
| 20260507181628 | 61 | 227 | 15.0 | 17.0 | 0.00 | 0.00 | 0.00 | 47 | 1015.8 |
| 20260507181125 | 60 | 241 | 13.0 | 18.0 | 0.00 | 0.00 | 0.00 | 49 | 1015.8 |
| 20260507180621 | 59 | 243 | 18.0 | 22.0 | 0.00 | 0.00 | 0.00 | 49 | 1015.8 |
| 20260507180118 | 60 | 201 | 8.0 | 20.0 | 0.00 | 0.00 | 0.00 | 49 | 1016.2 |
| 20260507175614 | 58 | 206 | 12.0 | 22.0 | 0.00 | 0.00 | 0.00 | 51 | 1016.3 |
| 20260507175112 | 58 | 217 | 13.0 | 24.0 | 0.00 | 0.00 | 0.00 | 51 | 1016.5 |
| 20260507174609 | 57 | 243 | 8.0 | 24.0 | 0.00 | 0.00 | 0.00 | 52 | 1016.6 |
| 20260507174107 | 58 | 230 | 15.0 | 20.0 | 0.00 | 0.00 | 0.00 | 51 | 1016.7 |
| 20260507173603 | 58 | 229 | 25.0 | 25.0 | 0.00 | 0.00 | 0.00 | 50 | 1016.5 |
| 20260507173100 | 57 | 248 | 11.0 | 22.0 | 0.00 | 0.00 | 0.00 | 53 | 1016.7 |
| 20260507172556 | 56 | 246 | 18.0 | 19.0 | 0.00 | 0.00 | 0.00 | 54 | 1016.7 |
| 20260507172053 | 57 | 220 | 14.0 | 24.0 | 0.00 | 0.00 | 0.00 | 53 | 1016.8 |
| 20260507171548 | 57 | 208 | 13.0 | 22.0 | 0.00 | 0.00 | 0.00 | 52 | 1016.8 |
| 20260507171046 | 57 | 249 | 14.0 | 25.0 | 0.00 | 0.00 | 0.00 | 52 | 1016.7 |
| 20260507170543 | 57 | 247 | 10.0 | 15.0 | 0.00 | 0.00 | 0.00 | 54 | 1016.8 |
| 20260507170040 | 56 | 247 | 14.0 | 16.0 | 0.00 | 0.00 | 0.00 | 54 | 1017.1 |
| 20260507165535 | 55 | 219 | 12.0 | 14.0 | 0.00 | 0.00 | 0.00 | 54 | 1017.1 |
| 20260507165032 | 54 | 198 | 9.0 | 14.0 | 0.00 | 0.00 | 0.00 | 56 | 1017.2 |
| 20260507164528 | 54 | 208 | 14.0 | 25.0 | 0.00 | 0.00 | 0.00 | 56 | 1017.3 |
| 20260507164026 | 54 | 233 | 7.0 | 12.0 | 0.00 | 0.00 | 0.00 | 57 | 1017.4 |
| 20260507163523 | 54 | 213 | 16.0 | 29.0 | 0.00 | 0.00 | 0.00 | 56 | 1017.6 |
| 20260507163021 | 54 | 229 | 11.0 | 17.0 | 0.00 | 0.00 | 0.00 | 57 | 1017.6 |
| 20260507162515 | 53 | 246 | 10.0 | 20.0 | 0.00 | 0.00 | 0.00 | 59 | 1017.7 |
| 20260507162012 | 53 | 165 | 8.0 | 13.0 | 0.00 | 0.00 | 0.00 | 58 | 1017.6 |
| 20260507161509 | 53 | 186 | 8.0 | 17.0 | 0.00 | 0.00 | 0.00 | 59 | 1017.6 |
| 20260507161006 | 53 | 194 | 13.0 | 22.0 | 0.00 | 0.00 | 0.00 | 58 | 1017.7 |
| 20260507160501 | 52 | 247 | 7.0 | 16.0 | 0.00 | 0.00 | 0.00 | 60 | 1017.7 |
| 20260507155957 | 51 | 213 | 11.0 | 18.0 | 0.00 | 0.00 | 0.00 | 61 | 1017.9 |
| 20260507155453 | 52 | 190 | 13.0 | 14.0 | 0.00 | 0.00 | 0.00 | 60 | 1017.9 |
| 20260507154950 | 51 | 209 | 2.0 | 11.0 | 0.00 | 0.00 | 0.00 | 61 | 1018.0 |
| 20260507154447 | 51 | 183 | 7.0 | 16.0 | 0.00 | 0.00 | 0.00 | 62 | 1018.1 |
| 20260507153944 | 50 | 179 | 5.0 | 13.0 | 0.00 | 0.00 | 0.00 | 62 | 1018.0 |
| 20260507153441 | 50 | 224 | 7.0 | 12.0 | 0.00 | 0.00 | 0.00 | 62 | 1018.1 |
| 20260507152937 | 51 | 207 | 11.0 | 17.0 | 0.00 | 0.00 | 0.00 | 62 | 1018.3 |
| 20260507152433 | 50 | 215 | 9.0 | 18.0 | 0.00 | 0.00 | 0.00 | 63 | 1018.1 |
| 20260507151929 | 50 | 160 | 9.0 | 13.0 | 0.00 | 0.00 | 0.00 | 64 | 1018.0 |
| 20260507151426 | 50 | 164 | 13.0 | 18.0 | 0.00 | 0.00 | 0.00 | 63 | 1018.1 |
| 20260507150923 | 48 | 190 | 12.0 | 14.0 | 0.00 | 0.00 | 0.00 | 66 | 1018.3 |
| 20260507150420 | 49 | 198 | 7.0 | 14.0 | 0.00 | 0.00 | 0.00 | 65 | 1018.3 |
| 20260507145916 | 48 | 145 | 8.0 | 12.0 | 0.00 | 0.00 | 0.00 | 65 | 1018.2 |
| 20260507145412 | 48 | 158 | 8.0 | 12.0 | 0.00 | 0.00 | 0.00 | 66 | 1018.3 |
| 20260507144909 | 48 | 156 | 10.0 | 12.0 | 0.00 | 0.00 | 0.00 | 67 | 1018.3 |
| 20260507144406 | 48 | 152 | 11.0 | 15.0 | 0.00 | 0.00 | 0.00 | 67 | 1018.4 |
| 20260507143903 | 47 | 198 | 6.0 | 12.0 | 0.00 | 0.00 | 0.00 | 67 | 1018.3 |
| 20260507143401 | 48 | 206 | 11.0 | 14.0 | 0.00 | 0.00 | 0.00 | 67 | 1018.3 |
| 20260507142857 | 48 | 178 | 7.0 | 8.0 | 0.00 | 0.00 | 0.00 | 68 | 1018.3 |
| 20260507142353 | 47 | 110 | 7.0 | 9.0 | 0.00 | 0.00 | 0.00 | 72 | 1018.8 |
| 20260507141850 | 46 | 194 | 4.0 | 5.0 | 0.00 | 0.00 | 0.00 | 76 | 1018.4 |
| 20260507141346 | 44 | 138 | 1.0 | 8.0 | 0.00 | 0.00 | 0.00 | 83 | 1018.4 |
| 20260507140843 | 44 | 215 | 6.0 | 6.0 | 0.00 | 0.00 | 0.00 | 89 | 1018.7 |
| 20260507140339 | 43 | 87 | 2.0 | 7.0 | 0.00 | 0.00 | 0.00 | 92 | 1018.3 |
| 20260507135838 | 42 | 352 | 3.0 | 4.0 | 0.00 | 0.00 | 0.00 | 94 | 1018.4 |
| 20260507135334 | 42 | 239 | 3.0 | 5.0 | 0.00 | 0.00 | 0.00 | 96 | 1018.5 |
| 20260507134832 | 42 | 347 | 5.0 | 7.0 | 0.00 | 0.00 | 0.00 | 96 | 1018.5 |
| 20260507134327 | 41 | 325 | 5.0 | 7.0 | 0.00 | 0.00 | 0.00 | 97 | 1018.7 |
| 20260507133824 | 41 | 326 | 6.0 | 8.0 | 0.00 | 0.00 | 0.00 | 97 | 1018.7 |
| 20260507133319 | 40 | 342 | 9.0 | 10.0 | 0.00 | 0.00 | 0.00 | 97 | 1018.4 |
| 20260507132818 | 40 | 339 | 5.0 | 7.0 | 0.00 | 0.00 | 0.00 | 97 | 1018.4 |
| 20260507132314 | 39 | 335 | 6.0 | 8.0 | 0.00 | 0.00 | 0.00 | 97 | 1018.7 |
| 20260507131812 | 39 | 339 | 7.0 | 9.0 | 0.00 | 0.00 | 0.00 | 97 | 1018.3 |
| 20260507131308 | 39 | 352 | 7.0 | 8.0 | 0.00 | 0.00 | 0.00 | 97 | 1018.5 |
| 20260507130804 | 38 | 359 | 7.0 | 9.0 | 0.00 | 0.00 | 0.00 | 96 | 1018.8 |
| 20260507130302 | 38 | 358 | 5.0 | 9.0 | 0.00 | 0.00 | 0.00 | 96 | 1018.7 |
| 20260507125801 | 38 | 340 | 7.0 | 10.0 | 0.00 | 0.00 | 0.00 | 96 | 1018.4 |
| 20260507125258 | 37 | 344 | 8.0 | 12.0 | 0.00 | 0.00 | 0.00 | 96 | 1018.2 |
| 20260507124755 | 37 | 335 | 10.0 | 12.0 | 0.00 | 0.00 | 0.00 | 96 | 1018.4 |
| 20260507124251 | 37 | 338 | 10.0 | 11.0 | 0.00 | 0.00 | 0.00 | 96 | 1018.5 |
| 20260507123750 | 37 | 335 | 8.0 | 9.0 | 0.00 | 0.00 | 0.00 | 95 | 1018.4 |
| 20260507123247 | 36 | 341 | 6.0 | 8.0 | 0.00 | 0.00 | 0.00 | 95 | 1018.3 |
| 20260507122742 | 36 | 353 | 6.0 | 7.0 | 0.00 | 0.00 | 0.00 | 95 | 1018.2 |
| 20260507122238 | 35 | 337 | 8.0 | 10.0 | 0.00 | 0.00 | 0.00 | 95 | 1018.3 |
| 20260507121734 | 35 | 352 | 7.0 | 9.0 | 0.00 | 0.00 | 0.00 | 94 | 1018.1 |
| 20260507121230 | 35 | 349 | 6.0 | 9.0 | 0.00 | 0.00 | 0.00 | 94 | 1018.1 |
| 20260507120726 | 35 | 350 | 7.0 | 10.0 | 0.00 | 0.00 | 0.00 | 94 | 1018.2 |
| 20260507120224 | 35 | 333 | 9.0 | 11.0 | 0.00 | 0.00 | 0.00 | 93 | 1018.0 |
| 20260507115720 | 35 | 349 | 9.0 | 12.0 | 0.00 | 0.00 | 0.00 | 92 | 1018.1 |
| 20260507115216 | 35 | 338 | 11.0 | 12.0 | 0.00 | 0.00 | 0.00 | 92 | 1018.1 |
| 20260507114711 | 36 | 337 | 10.0 | 11.0 | 0.00 | 0.00 | 0.00 | 92 | 1017.9 |
| 20260507114209 | 36 | 348 | 5.0 | 9.0 | 0.00 | 0.00 | 0.00 | 91 | 1017.9 |
| 20260507113706 | 35 | 347 | 6.0 | 7.0 | 0.00 | 0.00 | 0.00 | 91 | 1017.9 |
| 20260507113203 | 35 | 2 | 5.0 | 7.0 | 0.00 | 0.00 | 0.00 | 91 | 1018.1 |
| 20260507112701 | 35 | 356 | 4.0 | 6.0 | 0.00 | 0.00 | 0.00 | 91 | 1017.7 |
| 20260507112157 | 36 | 1 | 5.0 | 7.0 | 0.00 | 0.00 | 0.00 | 91 | 1017.9 |
| 20260507111655 | 36 | 351 | 5.0 | 5.0 | 0.00 | 0.00 | 0.00 | 91 | 1017.7 |
| 20260507111152 | 36 | 355 | 6.0 | 8.0 | 0.00 | 0.00 | 0.00 | 91 | 1018.0 |
| 20260507110647 | 36 | 351 | 5.0 | 6.0 | 0.00 | 0.00 | 0.00 | 91 | 1018.0 |
| 20260507110144 | 36 | 355 | 5.0 | 6.0 | 0.00 | 0.00 | 0.00 | 91 | 1017.7 |
| 20260507105641 | 36 | 349 | 5.0 | 6.0 | 0.00 | 0.00 | 0.00 | 91 | 1017.6 |
| 20260507105137 | 37 | 355 | 6.0 | 8.0 | 0.00 | 0.00 | 0.00 | 91 | 1017.7 |
| 20260507104634 | 37 | 344 | 6.0 | 8.0 | 0.00 | 0.00 | 0.00 | 90 | 1017.9 |
| 20260507104131 | 37 | 0 | 5.0 | 7.0 | 0.00 | 0.00 | 0.00 | 90 | 1017.9 |
| 20260507103627 | 37 | 358 | 5.0 | 7.0 | 0.00 | 0.00 | 0.00 | 90 | 1017.7 |
| 20260507103124 | 37 | 2 | 4.0 | 6.0 | 0.00 | 0.00 | 0.00 | 89 | 1018.0 |
| 20260507102621 | 37 | 7 | 5.0 | 8.0 | 0.00 | 0.00 | 0.00 | 89 | 1017.9 |
| 20260507102117 | 37 | 21 | 5.0 | 9.0 | 0.00 | 0.00 | 0.00 | 89 | 1017.9 |
| 20260507101613 | 38 | 12 | 7.0 | 8.0 | 0.00 | 0.00 | 0.00 | 89 | 1018.0 |
| 20260507101109 | 38 | 357 | 7.0 | 8.0 | 0.00 | 0.00 | 0.00 | 89 | 1018.0 |
| 20260507100606 | 38 | 358 | 5.0 | 7.0 | 0.00 | 0.00 | 0.00 | 88 | 1018.0 |
| 20260507100104 | 38 | 13 | 6.0 | 8.0 | 0.00 | 0.00 | 0.00 | 88 | 1017.9 |
| 20260507095602 | 38 | 0 | 7.0 | 8.0 | 0.00 | 0.00 | 0.00 | 88 | 1017.7 |
| 20260507095058 | 38 | 7 | 6.0 | 8.0 | 0.00 | 0.00 | 0.00 | 88 | 1017.7 |
| 20260507094554 | 38 | 4 | 7.0 | 9.0 | 0.00 | 0.00 | 0.00 | 87 | 1018.0 |
| 20260507094051 | 39 | 2 | 7.0 | 10.0 | 0.00 | 0.00 | 0.00 | 87 | 1017.9 |
| 20260507093549 | 39 | 17 | 7.0 | 9.0 | 0.00 | 0.00 | 0.00 | 87 | 1017.9 |
| 20260507093047 | 39 | 3 | 6.0 | 7.0 | 0.00 | 0.00 | 0.00 | 86 | 1017.6 |
| 20260507092543 | 39 | 14 | 6.0 | 8.0 | 0.00 | 0.00 | 0.00 | 86 | 1017.9 |
| 20260507092040 | 39 | 1 | 6.0 | 7.0 | 0.00 | 0.00 | 0.00 | 85 | 1017.9 |
| 20260507091537 | 39 | 3 | 6.0 | 8.0 | 0.00 | 0.00 | 0.00 | 85 | 1017.9 |
| 20260507091033 | 40 | 18 | 4.0 | 6.0 | 0.00 | 0.00 | 0.00 | 84 | 1017.7 |
| 20260507090529 | 40 | 8 | 6.0 | 8.0 | 0.00 | 0.00 | 0.00 | 84 | 1017.7 |
| 20260507090026 | 40 | 9 | 5.0 | 7.0 | 0.00 | 0.00 | 0.00 | 83 | 1017.6 |
| 20260507085523 | 40 | 0 | 3.0 | 5.0 | 0.00 | 0.00 | 0.00 | 82 | 1017.9 |
| 20260507085020 | 41 | 22 | 6.0 | 7.0 | 0.00 | 0.00 | 0.00 | 82 | 1017.9 |
| 20260507084516 | 41 | 15 | 5.0 | 8.0 | 0.00 | 0.00 | 0.00 | 81 | 1017.7 |
| 20260507084014 | 41 | 55 | 6.0 | 9.0 | 0.00 | 0.00 | 0.00 | 81 | 1017.7 |
| 20260507083510 | 41 | 20 | 5.0 | 9.0 | 0.00 | 0.00 | 0.00 | 80 | 1017.6 |
| 20260507083007 | 41 | 39 | 5.0 | 9.0 | 0.00 | 0.00 | 0.00 | 79 | 1017.6 |
| 20260507082503 | 42 | 46 | 4.0 | 9.0 | 0.00 | 0.00 | 0.00 | 78 | 1017.9 |
| 20260507081959 | 42 | 33 | 6.0 | 12.0 | 0.00 | 0.00 | 0.00 | 78 | 1018.0 |
| 20260507081455 | 42 | 13 | 12.0 | 12.0 | 0.00 | 0.00 | 0.00 | 78 | 1018.1 |
| 20260507080953 | 42 | 97 | 9.0 | 9.0 | 0.00 | 0.00 | 0.00 | 78 | 1017.4 |
| 20260507080448 | 42 | 88 | 10.0 | 15.0 | 0.00 | 0.00 | 0.00 | 78 | 1017.0 |
| 20260507075944 | 42 | 94 | 10.0 | 15.0 | 0.00 | 0.00 | 0.00 | 78 | 1017.3 |
| 20260507075440 | 42 | 103 | 11.0 | 16.0 | 0.00 | 0.00 | 0.00 | 78 | 1017.0 |
| 20260507074937 | 42 | 98 | 8.0 | 19.0 | 0.00 | 0.00 | 0.00 | 78 | 1016.8 |
| 20260507074434 | 42 | 95 | 13.0 | 17.0 | 0.00 | 0.00 | 0.00 | 79 | 1017.1 |
| 20260507073932 | 42 | 105 | 17.0 | 22.0 | 0.00 | 0.00 | 0.00 | 79 | 1016.8 |
| 20260507073428 | 42 | 110 | 19.0 | 22.0 | 0.00 | 0.00 | 0.00 | 80 | 1017.0 |
| 20260507072925 | 42 | 104 | 15.0 | 20.0 | 0.00 | 0.00 | 0.00 | 81 | 1017.1 |
| 20260507072422 | 42 | 101 | 15.0 | 16.0 | 0.00 | 0.00 | 0.00 | 81 | 1017.4 |
| 20260507071920 | 42 | 71 | 12.0 | 17.0 | 0.00 | 0.00 | 0.00 | 81 | 1017.6 |
| 20260507071417 | 42 | 86 | 17.0 | 19.0 | 0.00 | 0.00 | 0.00 | 81 | 1017.6 |
| 20260507070913 | 42 | 84 | 11.0 | 18.0 | 0.00 | 0.00 | 0.00 | 81 | 1018.1 |
| 20260507070410 | 43 | 55 | 9.0 | 16.0 | 0.00 | 0.00 | 0.00 | 81 | 1018.4 |
| 20260507065907 | 43 | 48 | 16.0 | 19.0 | 0.00 | 0.00 | 0.00 | 81 | 1018.1 |
| 20260507065404 | 43 | 64 | 11.0 | 15.0 | 0.00 | 0.00 | 0.00 | 80 | 1018.3 |
| 20260507064901 | 43 | 49 | 15.0 | 21.0 | 0.00 | 0.00 | 0.00 | 80 | 1018.7 |
| 20260507064359 | 43 | 47 | 12.0 | 20.0 | 0.00 | 0.00 | 0.00 | 79 | 1018.1 |
| 20260507063857 | 43 | 56 | 9.0 | 19.0 | 0.00 | 0.00 | 0.00 | 79 | 1018.5 |
| 20260507063354 | 43 | 52 | 13.0 | 21.0 | 0.00 | 0.00 | 0.00 | 78 | 1018.1 |
| 20260507062850 | 44 | 55 | 18.0 | 20.0 | 0.00 | 0.00 | 0.00 | 78 | 1018.3 |
| 20260507062347 | 44 | 30 | 13.0 | 21.0 | 0.00 | 0.00 | 0.00 | 77 | 1018.3 |
| 20260507061845 | 44 | 65 | 10.0 | 25.0 | 0.00 | 0.00 | 0.00 | 77 | 1018.2 |
| 20260507061343 | 44 | 58 | 19.0 | 26.0 | 0.00 | 0.00 | 0.00 | 77 | 1017.6 |
| 20260507060841 | 44 | 38 | 11.0 | 22.0 | 0.00 | 0.00 | 0.00 | 76 | 1018.2 |
| 20260507060337 | 44 | 24 | 9.0 | 18.0 | 0.00 | 0.00 | 0.00 | 75 | 1018.2 |
| 20260507055834 | 44 | 29 | 12.0 | 19.0 | 0.00 | 0.00 | 0.00 | 75 | 1018.2 |
| 20260507055329 | 44 | 23 | 8.0 | 21.0 | 0.00 | 0.00 | 0.00 | 75 | 1018.2 |
| 20260507054826 | 44 | 45 | 17.0 | 21.0 | 0.00 | 0.00 | 0.00 | 76 | 1018.3 |
| 20260507054322 | 44 | 59 | 8.0 | 25.0 | 0.00 | 0.00 | 0.00 | 76 | 1017.7 |
| 20260507053820 | 44 | 46 | 13.0 | 22.0 | 0.00 | 0.00 | 0.00 | 76 | 1017.5 |
| 20260507053317 | 44 | 23 | 10.0 | 25.0 | 0.00 | 0.00 | 0.00 | 75 | 1017.4 |
| 20260507052816 | 45 | 22 | 16.0 | 20.0 | 0.00 | 0.00 | 0.00 | 75 | 1017.9 |
| 20260507052312 | 45 | 42 | 11.0 | 25.0 | 0.00 | 0.00 | 0.00 | 75 | 1017.6 |
| 20260507051810 | 45 | 47 | 26.0 | 34.0 | 0.00 | 0.00 | 0.00 | 74 | 1017.4 |
| 20260507051308 | 46 | 49 | 17.0 | 31.0 | 0.00 | 0.00 | 0.00 | 72 | 1017.5 |
| 20260507050804 | 46 | 31 | 13.0 | 28.0 | 0.00 | 0.00 | 0.00 | 72 | 1017.6 |
| 20260507050300 | 46 | 27 | 11.0 | 29.0 | 0.00 | 0.00 | 0.00 | 72 | 1017.5 |
| 20260507045757 | 46 | 28 | 13.0 | 29.0 | 0.00 | 0.00 | 0.00 | 72 | 1017.3 |
| 20260507045254 | 46 | 31 | 15.0 | 30.0 | 0.00 | 0.00 | 0.00 | 71 | 1017.4 |
| 20260507044751 | 46 | 12 | 16.0 | 27.0 | 0.00 | 0.00 | 0.00 | 71 | 1017.5 |
| 20260507044247 | 46 | 37 | 20.0 | 28.0 | 0.00 | 0.00 | 0.00 | 69 | 1017.5 |
| 20260507043744 | 46 | 29 | 19.0 | 28.0 | 0.00 | 0.00 | 0.00 | 69 | 1017.4 |
| 20260507043240 | 46 | 44 | 16.0 | 30.0 | 0.00 | 0.00 | 0.00 | 69 | 1016.7 |
| 20260507042737 | 46 | 41 | 12.0 | 36.0 | 0.00 | 0.00 | 0.00 | 68 | 1017.2 |
| 20260507042232 | 46 | 32 | 17.0 | 32.0 | 0.00 | 0.00 | 0.00 | 69 | 1017.0 |
| 20260507041730 | 46 | 50 | 16.0 | 25.0 | 0.00 | 0.00 | 0.00 | 69 | 1016.4 |
| 20260507041226 | 46 | 39 | 23.0 | 38.0 | 0.00 | 0.00 | 0.00 | 69 | 1016.3 |
| 20260507040723 | 47 | 14 | 24.0 | 31.0 | 0.00 | 0.00 | 0.00 | 68 | 1016.0 |
| 20260507040219 | 47 | 53 | 34.0 | 34.0 | 0.00 | 0.00 | 0.00 | 68 | 1016.0 |
| 20260507035715 | 47 | 52 | 25.0 | 36.0 | 0.00 | 0.00 | 0.00 | 67 | 1016.0 |
| 20260507035211 | 48 | 53 | 22.0 | 40.0 | 0.00 | 0.00 | 0.00 | 67 | 1015.9 |
| 20260507034708 | 48 | 45 | 25.0 | 31.0 | 0.00 | 0.00 | 0.00 | 66 | 1015.8 |
| 20260507034206 | 48 | 38 | 22.0 | 34.0 | 0.00 | 0.00 | 0.00 | 66 | 1015.8 |
| 20260507033704 | 48 | 52 | 29.0 | 37.0 | 0.00 | 0.00 | 0.00 | 65 | 1015.4 |
| 20260507033201 | 48 | 46 | 29.0 | 36.0 | 0.00 | 0.00 | 0.00 | 65 | 1015.1 |
| 20260507032658 | 49 | 42 | 28.0 | 32.0 | 0.00 | 0.00 | 0.00 | 64 | 1015.4 |
| 20260507032154 | 49 | 42 | 23.0 | 32.0 | 0.00 | 0.00 | 0.00 | 63 | 1015.3 |
| 20260507031651 | 49 | 50 | 25.0 | 34.0 | 0.00 | 0.00 | 0.00 | 62 | 1015.1 |
| 20260507031147 | 50 | 27 | 17.0 | 35.0 | 0.00 | 0.00 | 0.00 | 62 | 1014.8 |
| 20260507030644 | 51 | 43 | 15.0 | 33.0 | 0.00 | 0.00 | 0.00 | 60 | 1015.1 |
| 20260507030142 | 51 | 37 | 15.0 | 31.0 | 0.00 | 0.00 | 0.00 | 59 | 1015.0 |
| 20260507025639 | 52 | 29 | 17.0 | 33.0 | 0.00 | 0.00 | 0.00 | 57 | 1014.9 |
| 20260507025136 | 53 | 57 | 34.0 | 43.0 | 0.00 | 0.00 | 0.00 | 53 | 1014.5 |
| 20260507024634 | 54 | 31 | 21.0 | 37.0 | 0.00 | 0.00 | 0.00 | 52 | 1014.6 |
| 20260507024131 | 55 | 53 | 19.0 | 39.0 | 0.00 | 0.00 | 0.00 | 51 | 1014.2 |
| 20260507023626 | 55 | 50 | 25.0 | 42.0 | 0.00 | 0.00 | 0.00 | 50 | 1014.2 |
| 20260507023124 | 56 | 49 | 28.0 | 43.0 | 0.00 | 0.00 | 0.00 | 50 | 1013.9 |
| 20260507022621 | 56 | 56 | 38.0 | 41.0 | 0.00 | 0.00 | 0.00 | 49 | 1013.7 |
| 20260507022116 | 56 | 23 | 26.0 | 36.0 | 0.00 | 0.00 | 0.00 | 49 | 1013.7 |
| 20260507021613 | 57 | 38 | 32.0 | 49.0 | 0.00 | 0.00 | 0.00 | 48 | 1013.0 |
| 20260507021109 | 57 | 53 | 43.0 | 45.0 | 0.00 | 0.00 | 0.00 | 47 | 1012.5 |
| 20260507020607 | 58 | 12 | 30.0 | 48.0 | 0.00 | 0.00 | 0.00 | 46 | 1012.4 |
| 20260507015602 | 59 | 52 | 27.0 | 53.0 | 0.00 | 0.00 | 0.00 | 44 | 1011.2 |
| 20260507015059 | 63 | 14 | 26.0 | 44.0 | 0.00 | 0.00 | 0.00 | 38 | 1011.1 |
| 20260507014555 | 68 | 333 | 17.0 | 23.0 | 0.00 | 0.00 | 0.00 | 26 | 1010.0 |
| 20260507014051 | 68 | 330 | 9.0 | 14.0 | 0.00 | 0.00 | 0.00 | 25 | 1009.9 |
| 20260507013548 | 68 | 317 | 9.0 | 16.0 | 0.00 | 0.00 | 0.00 | 25 | 1009.8 |
| 20260507013045 | 69 | 278 | 20.0 | 21.0 | 0.00 | 0.00 | 0.00 | 23 | 1009.5 |
| 20260507012542 | 70 | 284 | 11.0 | 11.0 | 0.00 | 0.00 | 0.00 | 20 | 1009.5 |
| 20260507012038 | 70 | 275 | 11.0 | 14.0 | 0.00 | 0.00 | 0.00 | 20 | 1009.4 |
| 20260507011535 | 71 | 268 | 10.0 | 17.0 | 0.00 | 0.00 | 0.00 | 19 | 1009.2 |
| 20260507011026 | 71 | 271 | 15.0 | 17.0 | 0.00 | 0.00 | 0.00 | 19 | 1009.2 |
| 20260507010520 | 71 | 254 | 13.0 | 22.0 | 0.00 | 0.00 | 0.00 | 19 | 1008.9 |
| 20260507010017 | 71 | 274 | 14.0 | 16.0 | 0.00 | 0.00 | 0.00 | 20 | 1009.1 |
| 20260507005515 | 71 | 276 | 18.0 | 21.0 | 0.00 | 0.00 | 0.00 | 19 | 1008.7 |
| 20260507005011 | 72 | 268 | 15.0 | 22.0 | 0.00 | 0.00 | 0.00 | 19 | 1008.9 |
| 20260507004508 | 72 | 248 | 15.0 | 24.0 | 0.00 | 0.00 | 0.00 | 16 | 1008.4 |
| 20260507004006 | 72 | 267 | 18.0 | 22.0 | 0.00 | 0.00 | 0.00 | 16 | 1008.7 |
| 20260507003500 | 72 | 251 | 20.0 | 22.0 | 0.00 | 0.00 | 0.00 | 16 | 1008.4 |
| 20260507002955 | 71 | 268 | 16.0 | 25.0 | 0.00 | 0.00 | 0.00 | 17 | 1008.7 |
| 20260507002453 | 72 | 254 | 23.0 | 31.0 | 0.00 | 0.00 | 0.00 | 16 | 1008.3 |
| 20260507001949 | 73 | 259 | 21.0 | 27.0 | 0.00 | 0.00 | 0.00 | 15 | 1008.4 |
| 20260507001446 | 73 | 243 | 24.0 | 31.0 | 0.00 | 0.00 | 0.00 | 15 | 1008.7 |
| 20260507000944 | 73 | 273 | 23.0 | 27.0 | 0.00 | 0.00 | 0.00 | 16 | 1008.6 |
| 20260507000439 | 74 | 246 | 19.0 | 24.0 | 0.00 | 0.00 | 0.00 | 15 | 1008.3 |
| 20260506235935 | 73 | 243 | 22.0 | 25.0 | 0.00 | 0.00 | 0.00 | 16 | 1008.3 |
| 20260506235432 | 73 | 249 | 28.0 | 31.0 | 0.00 | 0.00 | 0.00 | 15 | 1008.3 |
| 20260506234927 | 74 | 264 | 24.0 | 37.0 | 0.00 | 0.00 | 0.00 | 15 | 1008.2 |
| 20260506234426 | 73 | 264 | 24.0 | 30.0 | 0.00 | 0.00 | 0.00 | 15 | 1008.2 |
| 20260506233923 | 73 | 260 | 24.0 | 32.0 | 0.00 | 0.00 | 0.00 | 14 | 1008.2 |
| 20260506233419 | 73 | 236 | 23.0 | 26.0 | 0.00 | 0.00 | 0.00 | 14 | 1008.3 |
| 20260506232916 | 74 | 246 | 19.0 | 24.0 | 0.00 | 0.00 | 0.00 | 14 | 1008.4 |
| 20260506232412 | 74 | 228 | 28.0 | 29.0 | 0.00 | 0.00 | 0.00 | 14 | 1008.2 |
| 20260506231908 | 73 | 256 | 21.0 | 29.0 | 0.00 | 0.00 | 0.00 | 15 | 1008.0 |
| 20260506231406 | 73 | 249 | 21.0 | 28.0 | 0.00 | 0.00 | 0.00 | 15 | 1008.4 |
| 20260506230903 | 73 | 237 | 22.0 | 24.0 | 0.00 | 0.00 | 0.00 | 14 | 1008.3 |
| 20260506230359 | 74 | 242 | 11.0 | 22.0 | 0.00 | 0.00 | 0.00 | 14 | 1008.2 |
| 20260506225856 | 74 | 237 | 26.0 | 31.0 | 0.00 | 0.00 | 0.00 | 14 | 1008.3 |
| 20260506225353 | 73 | 233 | 28.0 | 33.0 | 0.00 | 0.00 | 0.00 | 15 | 1008.1 |
| 20260506224850 | 73 | 238 | 19.0 | 24.0 | 0.00 | 0.00 | 0.00 | 15 | 1008.2 |
| 20260506224348 | 73 | 255 | 15.0 | 24.0 | 0.00 | 0.00 | 0.00 | 16 | 1008.1 |
| 20260506223844 | 73 | 266 | 18.0 | 29.0 | 0.00 | 0.00 | 0.00 | 16 | 1008.2 |
| 20260506223339 | 73 | 268 | 15.0 | 17.0 | 0.00 | 0.00 | 0.00 | 16 | 1008.2 |
| 20260506222836 | 73 | 283 | 15.0 | 19.0 | 0.00 | 0.00 | 0.00 | 16 | 1008.0 |
| 20260506222332 | 73 | 231 | 18.0 | 23.0 | 0.00 | 0.00 | 0.00 | 16 | 1008.4 |
| 20260506221830 | 73 | 224 | 10.0 | 15.0 | 0.00 | 0.00 | 0.00 | 16 | 1008.3 |
| 20260506221327 | 72 | 227 | 14.0 | 17.0 | 0.00 | 0.00 | 0.00 | 16 | 1008.3 |
| 20260506220825 | 74 | 255 | 24.0 | 25.0 | 0.00 | 0.00 | 0.00 | 16 | 1008.3 |
| 20260506220320 | 73 | 275 | 13.0 | 26.0 | 0.00 | 0.00 | 0.00 | 16 | 1008.4 |
| 20260506215817 | 73 | 234 | 12.0 | 14.0 | 0.00 | 0.00 | 0.00 | 16 | 1008.2 |
| 20260506215313 | 73 | 274 | 18.0 | 24.0 | 0.00 | 0.00 | 0.00 | 17 | 1008.4 |